Time;durP1;ratioP1;P1;durP2;ratioP2;P2;SDS_P1;SDS_P2;PMS_P1;PMS_P2;Temp;Humidity;BMP_temperature;BMP_pressure;BME280_temperature;BME280_humidity;BME280_pressure;Samples;Min_cycle;Max_cycle;Signal;HPM_P1;HPM_P2
2022/10/31 00:02:17;;;;;;;39.40;19.90;;;;;;;9.32;100.00;99866.61;100602;1341;22775;-34
2022/10/31 00:04:43;;;;;;;34.90;17.70;;;;;;;9.28;100.00;99869.08;100558;1339;22819;-36
2022/10/31 00:07:08;;;;;;;22.90;14.70;;;;;;;9.21;100.00;99869.92;100566;1341;24383;-34
2022/10/31 00:09:34;;;;;;;29.40;16.30;;;;;;;9.15;100.00;99872.77;100493;1341;24286;-36
2022/10/31 00:11:59;;;;;;;31.00;15.10;;;;;;;9.11;100.00;99875.91;100461;1326;24410;-34
2022/10/31 00:14:25;;;;;;;28.20;15.10;;;;;;;9.08;100.00;99879.10;100536;1338;23103;-36
2022/10/31 00:16:50;;;;;;;38.00;17.10;;;;;;;9.06;100.00;99881.48;100535;1333;23106;-35
2022/10/31 00:19:16;;;;;;;37.60;17.40;;;;;;;9.06;100.00;99881.49;100538;1341;25724;-37
2022/10/31 00:21:42;;;;;;;29.10;14.70;;;;;;;9.05;100.00;99884.91;100583;1333;24214;-37
2022/10/31 00:24:07;;;;;;;26.40;15.70;;;;;;;9.05;100.00;99887.49;100493;1334;24468;-33
2022/10/31 00:26:33;;;;;;;24.10;12.80;;;;;;;9.03;100.00;99890.52;100587;1330;23228;-31
2022/10/31 00:28:59;;;;;;;45.90;19.40;;;;;;;9.06;100.00;99891.84;100557;1335;22900;-35
2022/10/31 00:31:25;;;;;;;39.60;16.50;;;;;;;9.05;100.00;99891.25;100572;1336;24485;-36
2022/10/31 00:33:50;;;;;;;33.60;16.50;;;;;;;9.04;100.00;99894.94;100530;1341;24372;-34
2022/10/31 00:36:17;;;;;;;36.90;17.80;;;;;;;8.99;100.00;99889.96;100551;1335;23228;-34
2022/10/31 00:38:43;;;;;;;25.30;15.40;;;;;;;8.97;100.00;99895.23;100576;1333;23268;-36
2022/10/31 00:41:10;;;;;;;30.00;12.20;;;;;;;8.96;100.00;99892.97;100658;1333;22950;-33
2022/10/31 00:43:35;;;;;;;33.50;16.50;;;;;;;8.94;100.00;99891.20;100541;1340;23191;-36
2022/10/31 00:46:01;;;;;;;31.70;15.50;;;;;;;8.92;100.00;99889.63;100589;1332;22877;-34
2022/10/31 00:48:27;;;;;;;26.60;16.00;;;;;;;8.92;100.00;99887.73;100538;1334;22725;-33
2022/10/31 00:50:52;;;;;;;33.60;19.10;;;;;;;8.92;100.00;99890.23;100485;1341;24460;-35
2022/10/31 00:53:18;;;;;;;36.70;17.80;;;;;;;8.90;100.00;99889.37;100546;1340;22909;-33
2022/10/31 00:55:44;;;;;;;39.00;19.10;;;;;;;8.86;100.00;99889.61;100500;1341;25634;-35
2022/10/31 00:58:09;;;;;;;27.30;16.60;;;;;;;8.78;100.00;99893.87;100551;1341;24361;-35
2022/10/31 01:00:35;;;;;;;33.10;17.80;;;;;;;8.72;100.00;99889.94;100415;1338;24597;-37
2022/10/31 01:03:00;;;;;;;25.80;15.50;;;;;;;8.63;100.00;99886.09;100575;1341;22802;-34
2022/10/31 01:05:26;;;;;;;22.30;12.00;;;;;;;8.53;100.00;99884.77;100523;1341;24383;-36
2022/10/31 01:07:51;;;;;;;30.60;15.10;;;;;;;8.41;100.00;99881.44;100553;1340;24383;-35
2022/10/31 01:10:17;;;;;;;34.70;18.10;;;;;;;8.28;100.00;99884.98;100537;1341;23000;-36
2022/10/31 01:12:45;;;;;;;31.60;16.40;;;;;;;8.18;100.00;99878.82;100476;1333;23105;-34
2022/10/31 01:15:12;;;;;;;33.20;20.10;;;;;;;8.11;100.00;99878.36;100508;1341;24494;-36
2022/10/31 01:17:38;;;;;;;31.50;17.10;;;;;;;8.06;100.00;99880.14;100629;1334;22546;-33
2022/10/31 01:20:05;;;;;;;22.50;14.50;;;;;;;8.05;100.00;99882.25;100625;1326;22899;-34
2022/10/31 01:22:30;;;;;;;34.70;16.70;;;;;;;8.08;100.00;99879.77;100532;1332;23071;-36
2022/10/31 01:24:56;;;;;;;40.20;20.10;;;;;;;8.17;100.00;99884.19;100562;1339;22531;-33
2022/10/31 01:27:22;;;;;;;38.40;18.80;;;;;;;8.28;100.00;99884.42;100620;1341;22999;-36
2022/10/31 01:29:47;;;;;;;31.40;15.70;;;;;;;8.30;100.00;99887.98;100595;1327;24565;-34
2022/10/31 01:32:13;;;;;;;36.60;16.70;;;;;;;8.26;100.00;99882.88;100484;1341;22807;-36
2022/10/31 01:34:38;;;;;;;34.50;17.10;;;;;;;8.27;100.00;99883.17;100628;1327;23485;-34
2022/10/31 01:37:04;;;;;;;23.70;13.90;;;;;;;8.30;100.00;99885.73;100593;1333;23211;-36
2022/10/31 01:39:29;;;;;;;41.30;17.40;;;;;;;8.32;100.00;99883.88;100577;1341;22759;-34
2022/10/31 01:41:55;;;;;;;33.40;17.20;;;;;;;8.33;100.00;99885.66;100529;1341;24361;-34
2022/10/31 01:44:20;;;;;;;34.60;16.40;;;;;;;8.33;100.00;99884.41;100554;1332;23106;-36
2022/10/31 01:46:50;;;;;;;34.20;18.60;;;;;;;8.26;100.00;99878.60;100568;1333;23108;-35
2022/10/31 01:49:20;;;;;;;21.50;14.80;;;;;;;8.15;100.00;99875.38;100589;1333;23020;-36
2022/10/31 01:51:49;;;;;;;35.30;18.80;;;;;;;8.03;100.00;99877.25;100527;1341;24385;-33
2022/10/31 01:54:15;;;;;;;15.80;10.30;;;;;;;7.90;100.00;99880.98;100590;1341;22718;-34
2022/10/31 01:56:42;;;;;;;24.40;13.30;;;;;;;7.82;100.00;99884.55;100505;1341;23101;-34
2022/10/31 01:59:09;;;;;;;33.00;18.10;;;;;;;7.76;100.00;99885.89;100471;1333;23118;-36
2022/10/31 02:01:35;;;;;;;25.70;13.60;;;;;;;7.73;100.00;99885.77;100555;1341;24067;-33
2022/10/31 02:04:00;;;;;;;25.20;13.40;;;;;;;7.74;100.00;99891.11;100507;1341;24593;-34
2022/10/31 02:06:33;;;;;;;28.20;12.80;;;;;;;7.75;100.00;99893.30;100613;1341;24363;-33
2022/10/31 02:08:58;;;;;;;26.40;15.40;;;;;;;7.75;100.00;99895.61;100610;1341;22504;-33
2022/10/31 02:11:24;;;;;;;27.30;14.20;;;;;;;7.71;100.00;99895.34;100559;1341;22751;-38
2022/10/31 02:13:49;;;;;;;27.40;14.80;;;;;;;7.67;100.00;99895.97;100488;1341;22629;-35
2022/10/31 02:16:15;;;;;;;21.30;13.80;;;;;;;7.63;100.00;99898.05;100563;1333;23253;-36
2022/10/31 02:18:40;;;;;;;35.50;18.80;;;;;;;7.58;100.00;99896.26;100486;1341;23342;-33
2022/10/31 02:21:15;;;;;;;26.90;15.20;;;;;;;7.55;100.00;99903.73;100540;1341;23255;-36
2022/10/31 02:23:49;;;;;;;32.30;15.10;;;;;;;7.55;100.00;99899.93;100562;1337;25540;-35
2022/10/31 02:26:18;;;;;;;27.90;14.10;;;;;;;7.59;100.00;99900.58;100449;1339;24819;-35
2022/10/31 02:28:51;;;;;;;53.00;16.90;;;;;;;7.62;100.00;99895.64;100587;1341;24408;-33
2022/10/31 02:31:23;;;;;;;28.90;16.00;;;;;;;7.65;100.00;99897.04;100569;1341;22505;-34
2022/10/31 02:33:52;;;;;;;28.40;15.90;;;;;;;7.66;100.00;99897.65;100625;1334;22572;-37
2022/10/31 02:36:24;;;;;;;19.10;10.50;;;;;;;7.68;100.00;99900.52;100530;1340;23093;-37
2022/10/31 02:38:58;;;;;;;16.30;10.20;;;;;;;7.70;100.00;99903.77;100495;1336;24306;-35
2022/10/31 02:41:25;;;;;;;;;;;;;;;7.75;100.00;99905.08;100520;1341;23143;-32
2022/10/31 02:43:58;;;;;;;21.70;11.90;;;;;;;7.78;100.00;99905.11;100567;1333;22721;-32
2022/10/31 02:46:28;;;;;;;43.70;17.30;;;;;;;7.80;100.00;99903.98;100577;1334;23119;-34
2022/10/31 02:48:55;;;;;;;40.10;18.40;;;;;;;7.82;100.00;99903.77;100540;1326;22719;-34
2022/10/31 02:51:20;;;;;;;25.20;14.60;;;;;;;7.81;100.00;99901.36;100529;1341;23243;-35
2022/10/31 02:53:46;;;;;;;12.70;9.10;;;;;;;7.83;100.00;99900.67;100466;1341;22974;-35
2022/10/31 02:56:14;;;;;;;39.10;18.40;;;;;;;7.82;100.00;99903.95;100488;1341;24293;-33
2022/10/31 02:58:45;;;;;;;24.00;14.70;;;;;;;7.82;100.00;99901.31;100594;1341;24378;-36
2022/10/31 03:01:19;;;;;;;20.90;12.10;;;;;;;7.80;100.00;99903.96;100582;1341;24382;-32
2022/10/31 03:03:48;;;;;;;12.80;8.30;;;;;;;7.82;100.00;99908.30;100589;1341;24230;-37
2022/10/31 03:06:17;;;;;;;19.20;12.00;;;;;;;7.79;100.00;99908.52;100558;1341;24488;-34
2022/10/31 03:08:48;;;;;;;28.60;13.50;;;;;;;7.77;100.00;99920.55;100423;1341;24562;-34
2022/10/31 03:11:13;;;;;;;17.00;8.00;;;;;;;7.74;100.00;99925.66;100585;1341;22756;-33
2022/10/31 03:13:41;;;;;;;22.70;14.30;;;;;;;7.72;100.00;99925.92;100544;1339;23024;-35
2022/10/31 03:16:13;;;;;;;26.20;13.80;;;;;;;7.69;100.00;99928.86;100633;1341;24306;-34
2022/10/31 03:18:43;;;;;;;29.30;15.00;;;;;;;7.67;100.00;99930.86;100563;1333;22892;-33
2022/10/31 03:21:13;;;;;;;42.90;22.40;;;;;;;7.62;100.00;99928.83;100546;1333;24880;-34
2022/10/31 03:23:40;;;;;;;29.80;16.60;;;;;;;7.55;100.00;99926.97;100591;1341;24499;-34
2022/10/31 03:26:06;;;;;;;31.90;17.00;;;;;;;7.53;100.00;99926.90;100531;1341;22769;-36
2022/10/31 03:28:36;;;;;;;28.90;14.30;;;;;;;7.50;100.00;99927.00;100459;1341;23090;-36
2022/10/31 03:31:02;;;;;;;19.60;12.20;;;;;;;7.49;100.00;99924.42;100531;1341;24489;-31
2022/10/31 03:33:28;;;;;;;37.70;19.40;;;;;;;7.50;100.00;99926.19;100628;1340;22894;-31
2022/10/31 03:35:55;;;;;;;28.00;15.30;;;;;;;7.48;100.00;99929.72;100592;1341;22855;-36
2022/10/31 03:38:21;;;;;;;36.10;12.50;;;;;;;7.44;100.00;99931.88;100074;1342;616204;-36
2022/10/31 03:40:46;;;;;;;64.80;16.00;;;;;;;7.37;100.00;99931.92;100518;1333;22780;-36
2022/10/31 03:43:16;;;;;;;28.10;13.50;;;;;;;7.32;100.00;99936.97;100555;1341;23110;-37
2022/10/31 03:45:44;;;;;;;41.30;18.90;;;;;;;7.29;100.00;99936.15;100627;1341;26560;-34
2022/10/31 03:48:10;;;;;;;30.30;15.30;;;;;;;7.30;100.00;99942.14;100574;1337;24476;-35
2022/10/31 03:50:40;;;;;;;24.90;15.10;;;;;;;7.27;100.00;99942.48;100505;1333;22909;-38
2022/10/31 03:53:09;;;;;;;28.80;15.50;;;;;;;7.19;100.00;99939.35;100636;1341;23239;-34
2022/10/31 03:55:38;;;;;;;;;;;;;;;7.09;100.00;99938.65;100584;1341;23570;-34
2022/10/31 03:58:07;;;;;;;22.50;12.20;;;;;;;6.97;100.00;99938.27;100618;1333;24383;-33
2022/10/31 04:00:33;;;;;;;13.20;8.20;;;;;;;6.89;100.00;99944.64;100606;1340;25296;-35
2022/10/31 04:03:00;;;;;;;13.50;7.70;;;;;;;6.86;100.00;99954.60;100620;1333;24250;-33
2022/10/31 04:05:26;;;;;;;19.30;10.50;;;;;;;6.82;100.00;99959.63;100581;1333;22861;-35
2022/10/31 04:07:53;;;;;;;12.70;7.30;;;;;;;6.79;100.00;99951.56;100597;1333;22757;-33
2022/10/31 04:10:19;;;;;;;23.50;13.80;;;;;;;6.77;100.00;99950.98;100605;1330;22492;-36
2022/10/31 04:12:48;;;;;;;29.30;16.00;;;;;;;6.77;100.00;99948.71;100642;1341;24369;-34
2022/10/31 04:15:14;;;;;;;29.00;15.40;;;;;;;6.76;100.00;99947.11;100568;1341;25497;-36
2022/10/31 04:17:40;;;;;;;34.70;15.60;;;;;;;6.76;100.00;99947.70;100387;1336;22738;-36
2022/10/31 04:20:07;;;;;;;36.10;19.60;;;;;;;6.75;100.00;99948.40;100482;1333;22764;-34
2022/10/31 04:22:33;;;;;;;36.70;18.00;;;;;;;6.75;100.00;99946.65;100624;1341;22521;-34
2022/10/31 04:24:59;;;;;;;24.70;15.10;;;;;;;6.73;100.00;99948.46;100596;1341;24266;-34
2022/10/31 04:27:24;;;;;;;25.60;14.60;;;;;;;6.71;100.00;99949.21;100633;1333;22863;-36
2022/10/31 04:29:50;;;;;;;36.40;20.00;;;;;;;6.69;100.00;99945.30;100558;1333;23116;-36
2022/10/31 04:32:15;;;;;;;35.80;16.10;;;;;;;6.67;100.00;99952.42;100482;1333;23253;-31
2022/10/31 04:34:41;;;;;;;34.40;17.50;;;;;;;6.69;100.00;99953.32;100509;1341;23112;-39
2022/10/31 04:37:06;;;;;;;24.00;15.00;;;;;;;6.70;100.00;99957.88;100496;1341;22748;-35
2022/10/31 04:39:32;;;;;;;29.30;14.40;;;;;;;6.73;100.00;99963.81;100504;1341;22809;-35
2022/10/31 04:41:57;;;;;;;31.20;10.10;;;;;;;6.76;100.00;99966.96;100564;1332;22514;-33
2022/10/31 04:44:23;;;;;;;21.80;11.50;;;;;;;6.80;100.00;99968.58;100509;1333;22922;-33
2022/10/31 04:46:48;;;;;;;29.80;14.20;;;;;;;6.81;100.00;99967.95;100533;1341;24395;-33
2022/10/31 04:49:14;;;;;;;38.60;15.90;;;;;;;6.83;100.00;99966.86;100575;1341;22518;-33
2022/10/31 04:51:39;;;;;;;18.10;11.80;;;;;;;6.84;100.00;99963.16;100456;1335;23102;-33
2022/10/31 04:54:05;;;;;;;29.80;15.50;;;;;;;6.84;100.00;99964.96;100561;1341;24238;-33
2022/10/31 04:56:31;;;;;;;26.80;12.00;;;;;;;6.82;100.00;99964.58;100443;1342;22984;-33
2022/10/31 04:58:56;;;;;;;43.30;20.10;;;;;;;6.81;100.00;99966.98;100570;1341;23175;-35
2022/10/31 05:01:22;;;;;;;31.50;17.00;;;;;;;6.81;100.00;99971.70;100546;1341;23091;-38
2022/10/31 05:03:47;;;;;;;35.80;17.90;;;;;;;6.81;100.00;99975.06;100532;1341;24855;-35
2022/10/31 05:06:13;;;;;;;34.80;16.70;;;;;;;6.79;100.00;99975.39;100557;1341;25243;-34
2022/10/31 05:08:38;;;;;;;28.70;17.10;;;;;;;6.73;100.00;99970.65;100485;1341;24531;-32
2022/10/31 05:11:04;;;;;;;22.20;13.30;;;;;;;6.68;100.00;99969.12;100576;1341;22984;-35
2022/10/31 05:13:30;;;;;;;30.10;17.00;;;;;;;6.63;100.00;99970.11;100591;1341;24371;-34
2022/10/31 05:15:55;;;;;;;35.50;15.90;;;;;;;6.62;100.00;99968.50;100485;1342;24383;-33
2022/10/31 05:18:21;;;;;;;42.90;19.50;;;;;;;6.61;100.00;99967.27;100405;1343;24451;-32
2022/10/31 05:20:46;;;;;;;36.40;19.00;;;;;;;6.60;100.00;99971.37;100530;1339;22766;-35
2022/10/31 05:23:13;;;;;;;27.90;14.50;;;;;;;6.58;100.00;99968.48;100633;1340;22761;-35
2022/10/31 05:25:39;;;;;;;37.70;17.70;;;;;;;6.60;100.00;99967.83;100521;1335;22841;-36
2022/10/31 05:28:05;;;;;;;40.60;15.80;;;;;;;6.60;100.00;99969.54;100575;1341;22530;-33
2022/10/31 05:30:30;;;;;;;38.70;18.60;;;;;;;6.60;100.00;99975.23;100500;1341;22870;-34
2022/10/31 05:32:56;;;;;;;46.40;21.00;;;;;;;6.63;100.00;99979.19;100582;1341;24457;-34
2022/10/31 05:35:24;;;;;;;48.80;22.70;;;;;;;6.60;100.00;99979.39;100612;1340;23432;-36
2022/10/31 05:37:49;;;;;;;35.70;19.70;;;;;;;6.57;100.00;99981.41;100615;1339;24383;-34
2022/10/31 05:40:16;;;;;;;51.70;23.40;;;;;;;6.54;100.00;99983.83;100608;1334;24424;-36
2022/10/31 05:42:42;;;;;;;30.50;16.80;;;;;;;6.53;100.00;99986.42;100613;1340;23104;-35
2022/10/31 05:45:09;;;;;;;35.40;18.40;;;;;;;6.53;100.00;99991.60;100534;1341;24547;-38
2022/10/31 05:47:34;;;;;;;47.80;25.10;;;;;;;6.54;100.00;99993.21;100512;1341;24418;-36
2022/10/31 05:50:00;;;;;;;42.20;16.40;;;;;;;6.57;100.00;99994.27;100569;1341;23127;-36
2022/10/31 05:52:26;;;;;;;40.70;21.00;;;;;;;6.58;100.00;99994.00;100470;1341;22851;-36
2022/10/31 05:54:51;;;;;;;30.70;13.70;;;;;;;6.60;100.00;99998.36;100565;1341;24431;-36
2022/10/31 05:57:17;;;;;;;33.20;16.40;;;;;;;6.62;100.00;100002.23;100556;1339;25590;-32
2022/10/31 05:59:43;;;;;;;38.20;17.20;;;;;;;6.62;100.00;100001.90;100530;1326;24845;-36
2022/10/31 06:02:08;;;;;;;29.90;15.40;;;;;;;6.65;100.00;100006.02;100505;1336;24607;-36
2022/10/31 06:04:34;;;;;;;26.30;13.10;;;;;;;6.68;100.00;100010.02;100572;1341;23053;-32
2022/10/31 06:06:59;;;;;;;22.60;13.50;;;;;;;6.69;100.00;100015.27;100562;1334;22497;-38
2022/10/31 06:09:25;;;;;;;28.20;16.80;;;;;;;6.70;100.00;100018.91;100550;1325;23228;-36
2022/10/31 06:11:50;;;;;;;49.50;21.70;;;;;;;6.75;100.00;100022.48;100471;1333;23324;-33
2022/10/31 06:14:16;;;;;;;52.30;19.10;;;;;;;6.79;100.00;100022.98;100501;1341;22864;-35
2022/10/31 06:16:45;;;;;;;40.30;21.30;;;;;;;6.84;100.00;100031.11;100584;1336;22886;-33
2022/10/31 06:19:11;;;;;;;42.20;19.20;;;;;;;6.86;100.00;100033.59;100492;1341;25606;-35
2022/10/31 06:21:37;;;;;;;39.90;17.60;;;;;;;6.93;100.00;100034.86;100551;1341;24297;-32
2022/10/31 06:24:03;;;;;;;51.90;25.00;;;;;;;6.96;100.00;100037.01;100542;1341;22805;-32
2022/10/31 06:26:29;;;;;;;32.80;16.60;;;;;;;7.03;100.00;100040.42;100518;1341;22509;-35
2022/10/31 06:28:55;;;;;;;43.20;18.50;;;;;;;7.04;100.00;100043.22;100578;1325;24769;-35
2022/10/31 06:31:20;;;;;;;27.30;13.70;;;;;;;7.06;100.00;100044.73;100615;1340;22889;-33
2022/10/31 06:33:45;;;;;;;31.80;16.70;;;;;;;7.08;100.00;100042.75;100573;1341;23117;-33
2022/10/31 06:36:11;;;;;;;33.20;16.70;;;;;;;7.10;100.00;100042.92;100512;1341;23237;-33
2022/10/31 06:38:36;;;;;;;39.10;20.10;;;;;;;7.14;100.00;100043.19;100564;1341;22870;-37
2022/10/31 06:41:04;;;;;;;30.30;14.80;;;;;;;7.18;100.00;100043.66;100574;1340;24290;-34
2022/10/31 06:43:29;;;;;;;30.60;15.10;;;;;;;7.21;100.00;100047.66;100640;1341;24288;-36
2022/10/31 06:45:55;;;;;;;28.30;12.60;;;;;;;7.22;100.00;100053.41;100615;1336;23109;-34
2022/10/31 06:48:21;;;;;;;31.20;16.50;;;;;;;7.27;100.00;100053.46;100498;1326;22518;-36
2022/10/31 06:50:46;;;;;;;42.00;16.80;;;;;;;7.32;100.00;100050.46;100492;1342;24497;-36
2022/10/31 06:53:13;;;;;;;28.10;16.70;;;;;;;7.42;100.00;100053.61;100539;1341;22732;-33
2022/10/31 06:55:39;;;;;;;51.30;20.30;;;;;;;7.52;100.00;100060.08;100574;1325;23358;-34
2022/10/31 06:58:05;;;;;;;26.50;14.90;;;;;;;7.60;100.00;100073.84;100538;1341;22750;-36
2022/10/31 07:00:31;;;;;;;32.90;16.80;;;;;;;7.71;100.00;100080.94;100383;1341;22923;-36
2022/10/31 07:02:57;;;;;;;29.90;17.60;;;;;;;7.81;100.00;100088.23;100535;1341;22749;-34
2022/10/31 07:05:24;;;;;;;42.10;21.50;;;;;;;7.95;100.00;100097.09;100555;1341;24310;-33
2022/10/31 07:07:53;;;;;;;47.20;22.20;;;;;;;8.11;100.00;100108.98;100602;1341;22894;-37
2022/10/31 07:10:19;;;;;;;53.70;22.10;;;;;;;8.22;100.00;100114.05;100603;1334;22879;-34
2022/10/31 07:12:45;;;;;;;41.00;20.30;;;;;;;8.29;100.00;100117.73;100481;1337;22765;-34
2022/10/31 07:15:10;;;;;;;42.30;21.20;;;;;;;8.38;100.00;100121.73;100597;1341;22506;-34
2022/10/31 07:17:36;;;;;;;37.10;18.10;;;;;;;8.45;100.00;100122.48;100439;1339;22757;-36
2022/10/31 07:20:02;;;;;;;59.50;23.90;;;;;;;8.56;100.00;100124.63;100532;1341;23540;-33
2022/10/31 07:22:34;;;;;;;40.10;19.60;;;;;;;8.74;100.00;100124.46;100513;1341;24488;-36
2022/10/31 07:24:59;;;;;;;30.70;15.60;;;;;;;9.02;100.00;100129.48;100548;1341;22867;-37
2022/10/31 07:27:25;;;;;;;54.00;26.40;;;;;;;9.22;100.00;100134.39;100432;1341;22507;-34
2022/10/31 07:29:51;;;;;;;30.40;20.10;;;;;;;9.49;100.00;100137.16;100586;1341;23235;-34
2022/10/31 07:32:17;;;;;;;43.70;23.40;;;;;;;9.72;100.00;100142.45;100613;1341;23227;-35
2022/10/31 07:34:42;;;;;;;37.80;20.90;;;;;;;9.84;100.00;100139.11;100538;1341;24463;-36
2022/10/31 07:37:08;;;;;;;34.10;20.20;;;;;;;10.15;100.00;100135.59;100493;1341;24284;-36
2022/10/31 07:39:34;;;;;;;33.20;18.80;;;;;;;10.44;100.00;100141.40;100445;1336;22764;-34
2022/10/31 07:41:59;;;;;;;33.70;19.80;;;;;;;10.71;100.00;100146.29;100518;1335;22742;-36
2022/10/31 07:44:25;;;;;;;20.00;15.40;;;;;;;10.93;100.00;100152.70;100583;1341;23260;-37
2022/10/31 07:46:50;;;;;;;39.30;19.80;;;;;;;11.14;100.00;100155.54;100488;1340;22892;-38
2022/10/31 07:49:16;;;;;;;27.40;16.40;;;;;;;11.31;100.00;100157.05;100572;1341;22807;-34
2022/10/31 07:51:42;;;;;;;25.00;14.50;;;;;;;11.49;100.00;100156.77;100481;1335;23232;-36
2022/10/31 07:54:07;;;;;;;21.50;12.20;;;;;;;11.67;100.00;100156.45;100533;1332;24591;-35
2022/10/31 07:56:33;;;;;;;28.00;13.00;;;;;;;11.88;100.00;100156.92;100566;1341;22847;-37
2022/10/31 07:58:58;;;;;;;22.80;14.90;;;;;;;12.10;100.00;100149.84;100591;1334;25377;-34
2022/10/31 08:01:24;;;;;;;24.50;11.50;;;;;;;12.32;100.00;100133.08;100480;1335;24834;-34
2022/10/31 08:03:49;;;;;;;16.40;11.50;;;;;;;12.37;100.00;100086.97;100470;1341;22526;-37
2022/10/31 08:06:15;;;;;;;19.70;9.50;;;;;;;12.35;100.00;100042.30;100612;1327;22862;-37
2022/10/31 08:08:40;;;;;;;14.20;10.10;;;;;;;12.28;100.00;100037.10;100565;1341;24288;-39
2022/10/31 08:11:06;;;;;;;23.70;12.30;;;;;;;12.30;100.00;100040.61;100546;1325;24302;-35
2022/10/31 08:13:32;;;;;;;19.20;10.70;;;;;;;12.39;100.00;100031.33;100452;1341;23375;-34
2022/10/31 08:16:03;;;;;;;28.50;12.40;;;;;;;12.60;100.00;100023.43;100572;1332;22500;-37
2022/10/31 08:18:29;;;;;;;18.10;10.60;;;;;;;12.81;100.00;100009.04;100622;1341;24314;-37
2022/10/31 08:20:54;;;;;;;20.70;10.50;;;;;;;13.04;100.00;100000.91;100623;1341;22881;-37
2022/10/31 08:23:20;;;;;;;19.10;11.30;;;;;;;13.30;100.00;99999.01;100395;1330;22505;-37
2022/10/31 08:25:47;;;;;;;21.30;10.80;;;;;;;13.63;100.00;100003.20;100514;1333;24841;-35
2022/10/31 08:28:13;;;;;;;23.20;12.30;;;;;;;13.84;100.00;99980.91;100517;1333;22902;-35
2022/10/31 08:30:39;;;;;;;16.50;9.30;;;;;;;14.03;100.00;99958.82;100613;1328;22813;-37
2022/10/31 08:33:08;;;;;;;23.30;9.80;;;;;;;14.10;100.00;99950.77;100524;1341;23080;-35
2022/10/31 08:35:33;;;;;;;14.20;9.10;;;;;;;14.32;100.00;99951.54;100586;1333;22516;-39
2022/10/31 08:37:59;;;;;;;12.70;7.80;;;;;;;14.55;100.00;99942.90;100535;1335;23534;-37
2022/10/31 08:40:25;;;;;;;13.50;8.30;;;;;;;14.74;100.00;99929.53;100526;1335;24498;-38
2022/10/31 08:42:56;;;;;;;12.10;7.60;;;;;;;14.85;100.00;99918.62;100577;1341;22545;-37
2022/10/31 08:45:21;;;;;;;20.90;10.50;;;;;;;14.95;100.00;99921.21;100530;1334;25753;-37
2022/10/31 08:47:47;;;;;;;15.70;7.70;;;;;;;15.11;100.00;99918.25;100501;1333;22914;-36
2022/10/31 08:50:12;;;;;;;14.20;7.10;;;;;;;15.21;100.00;99902.93;100546;1341;22913;-37
2022/10/31 08:52:38;;;;;;;10.30;6.10;;;;;;;15.45;100.00;99908.45;100416;1341;22509;-35
2022/10/31 08:55:04;;;;;;;16.50;8.20;;;;;;;15.49;100.00;99909.89;100429;1341;25882;-37
2022/10/31 08:57:29;;;;;;;13.90;9.00;;;;;;;15.61;100.00;99906.52;100543;1340;22981;-37
2022/10/31 08:59:55;;;;;;;7.80;6.30;;;;;;;15.88;100.00;99904.95;100463;1341;23041;-35
2022/10/31 09:02:21;;;;;;;16.10;8.00;;;;;;;16.08;100.00;99906.02;100570;1341;22501;-35
2022/10/31 09:04:47;;;;;;;22.40;8.20;;;;;;;16.32;100.00;99905.52;100498;1341;22963;-37
2022/10/31 09:07:12;;;;;;;15.50;7.60;;;;;;;16.40;100.00;99891.70;100437;1341;22848;-36
2022/10/31 09:09:37;;;;;;;11.20;6.10;;;;;;;16.49;100.00;99895.44;100579;1341;23069;-37
2022/10/31 09:12:03;;;;;;;10.70;6.80;;;;;;;16.90;100.00;99898.35;100539;1341;24419;-37
2022/10/31 09:14:29;;;;;;;10.20;5.80;;;;;;;17.03;100.00;99895.33;100560;1340;22750;-37
2022/10/31 09:16:56;;;;;;;14.30;7.60;;;;;;;17.05;100.00;99893.17;100558;1326;22753;-35
2022/10/31 09:19:21;;;;;;;12.50;7.20;;;;;;;17.16;98.04;99888.66;100585;1333;23104;-37
2022/10/31 09:21:47;;;;;;;9.90;6.00;;;;;;;16.92;91.39;99888.17;100526;1339;24323;-37
2022/10/31 09:24:13;;;;;;;11.20;6.30;;;;;;;17.20;91.39;99886.74;100494;1333;26598;-37
2022/10/31 09:26:39;;;;;;;15.40;5.80;;;;;;;16.96;90.41;99885.63;100492;1337;24299;-38
2022/10/31 09:29:04;;;;;;;11.30;5.50;;;;;;;17.10;93.41;99887.48;100506;1341;22749;-36
2022/10/31 09:31:31;;;;;;;8.30;5.50;;;;;;;17.37;91.54;99885.98;100682;1326;22868;-37
2022/10/31 09:33:57;;;;;;;13.70;6.80;;;;;;;17.67;87.38;99886.27;100556;1341;22754;-37
2022/10/31 09:36:22;;;;;;;17.60;4.90;;;;;;;17.61;84.65;99888.66;100555;1332;26286;-37
2022/10/31 09:38:48;;;;;;;;;;;;;;;18.12;80.73;99883.55;100577;1341;25263;-38
2022/10/31 09:41:21;;;;;;;20.40;5.00;;;;;;;17.93;81.19;99886.30;100568;1333;23042;-36
2022/10/31 09:43:49;;;;;;;13.00;6.20;;;;;;;17.84;79.10;99881.77;100625;1341;23918;-37
2022/10/31 09:46:25;;;;;;;10.30;6.10;;;;;;;17.89;79.61;99885.92;100629;1340;22896;-38
2022/10/31 09:48:54;;;;;;;14.70;6.40;;;;;;;18.08;78.97;99882.23;100584;1341;22527;-37
2022/10/31 09:51:22;;;;;;;11.80;4.20;;;;;;;18.12;77.33;99885.77;100592;1333;24765;-37
2022/10/31 09:53:53;;;;;;;10.70;5.80;;;;;;;18.28;75.42;99884.63;100572;1336;22507;-36
2022/10/31 09:56:20;;;;;;;14.80;7.00;;;;;;;18.34;75.75;99880.84;100569;1334;23283;-38
2022/10/31 09:58:48;;;;;;;11.10;5.00;;;;;;;18.66;72.99;99880.84;100487;1341;24293;-36
2022/10/31 10:01:27;;;;;;;16.10;5.60;;;;;;;18.63;72.40;99882.81;100658;1340;22791;-34
2022/10/31 10:03:55;;;;;;;11.20;6.10;;;;;;;18.57;73.18;99879.79;100556;1333;24373;-34
2022/10/31 10:06:23;;;;;;;20.70;5.80;;;;;;;18.65;72.01;99880.52;100641;1333;22762;-34
2022/10/31 10:08:49;;;;;;;7.00;5.60;;;;;;;18.82;71.32;99882.67;100479;1341;23276;-34
2022/10/31 10:11:23;;;;;;;9.10;3.80;;;;;;;19.02;69.11;99887.30;100511;1341;24380;-34
2022/10/31 10:13:56;;;;;;;18.50;6.40;;;;;;;19.15;67.67;99886.85;100437;1341;24370;-36
2022/10/31 10:16:25;;;;;;;;;;;;;;;19.09;68.40;99885.71;100608;1341;22475;-34
2022/10/31 10:18:55;;;;;;;9.30;4.60;;;;;;;19.21;67.47;99884.70;100593;1341;22762;-35
2022/10/31 10:21:26;;;;;;;16.60;5.50;;;;;;;19.24;67.26;99886.45;100513;1341;25365;-36
2022/10/31 10:23:55;;;;;;;5.00;3.20;;;;;;;19.18;67.74;99884.58;100544;1333;24368;-34
2022/10/31 10:26:22;;;;;;;10.40;3.40;;;;;;;19.36;66.40;99887.54;100573;1335;24374;-38
2022/10/31 10:28:53;;;;;;;10.10;4.50;;;;;;;19.57;65.55;99886.92;100579;1326;22510;-34
2022/10/31 10:31:23;;;;;;;5.10;4.60;;;;;;;19.59;65.62;99886.88;100449;1341;24377;-34
2022/10/31 10:34:02;;;;;;;19.00;6.90;;;;;;;19.59;65.78;99886.42;100545;1335;22745;-35
2022/10/31 10:36:35;;;;;;;18.10;4.50;;;;;;;19.56;65.78;99886.48;100566;1324;22502;-35
2022/10/31 10:39:04;;;;;;;10.90;5.50;;;;;;;19.73;65.07;99881.35;100563;1341;22518;-36
2022/10/31 10:41:31;;;;;;;7.70;4.80;;;;;;;20.07;64.91;99876.13;100631;1333;23056;-38
2022/10/31 10:43:57;;;;;;;10.60;5.10;;;;;;;20.31;64.97;99876.64;100543;1341;23235;-34
2022/10/31 10:49:03;;;;;;;21.70;7.30;;;;;;;20.67;59.71;99872.83;100601;1341;22636;-37
2022/10/31 10:51:35;;;;;;;13.70;6.70;;;;;;;20.44;61.17;99868.64;100576;1335;23203;-37
2022/10/31 10:54:03;;;;;;;;;;;;;;;20.46;61.85;99871.17;100626;1341;25325;-36
2022/10/31 10:56:37;;;;;;;5.50;5.00;;;;;;;20.69;59.87;99865.05;100543;1333;24340;-36
2022/10/31 10:59:03;;;;;;;9.10;5.40;;;;;;;20.33;62.02;99861.49;100514;1341;22564;-36
2022/10/31 11:01:28;;;;;;;12.50;4.50;;;;;;;20.60;62.25;99861.41;100578;1341;24290;-36
2022/10/31 11:03:54;;;;;;;11.30;3.70;;;;;;;20.90;60.46;99863.95;100542;1333;22501;-36
2022/10/31 11:06:24;;;;;;;18.20;6.10;;;;;;;20.88;60.98;99864.82;100553;1333;22927;-35
2022/10/31 11:08:50;;;;;;;13.60;6.20;;;;;;;21.06;59.43;99865.41;100547;1341;22646;-35
2022/10/31 11:11:33;;;;;;;10.90;5.90;;;;;;;21.01;59.40;99867.65;100536;1333;22880;-35